sensor_id;sensor_type;location;lat;lon;timestamp;P1;durP1;ratioP1;P2;durP2;ratioP2
23594;SDS011;11975;47.674;9.472;2023-01-29T04:55:40;1999.90;;;999.90;;
23594;SDS011;11975;47.674;9.472;2023-01-29T04:58:19;1999.90;;;999.90;;
23594;SDS011;11975;47.674;9.472;2023-01-29T05:00:49;1507.47;;;757.05;;
23594;SDS011;11975;47.674;9.472;2023-01-29T05:03:18;30.52;;;28.50;;
23594;SDS011;11975;47.674;9.472;2023-01-29T05:05:45;29.05;;;27.35;;
23594;SDS011;11975;47.674;9.472;2023-01-29T05:08:13;28.38;;;26.73;;
23594;SDS011;11975;47.674;9.472;2023-01-29T05:10:41;30.75;;;28.80;;
23594;SDS011;11975;47.674;9.472;2023-01-29T05:13:08;27.83;;;26.23;;
23594;SDS011;11975;47.674;9.472;2023-01-29T05:15:38;29.02;;;27.38;;
23594;SDS011;11975;47.674;9.472;2023-01-29T05:18:05;29.15;;;27.45;;
23594;SDS011;11975;47.674;9.472;2023-01-29T05:20:34;27.77;;;26.17;;
23594;SDS011;11975;47.674;9.472;2023-01-29T05:23:02;27.48;;;25.92;;
23594;SDS011;11975;47.674;9.472;2023-01-29T05:25:29;27.25;;;25.73;;
23594;SDS011;11975;47.674;9.472;2023-01-29T05:27:56;27.10;;;25.60;;
23594;SDS011;11975;47.674;9.472;2023-01-29T05:30:52;27.10;;;25.60;;
23594;SDS011;11975;47.674;9.472;2023-01-29T05:33:20;28.38;;;26.77;;
23594;SDS011;11975;47.674;9.472;2023-01-29T05:35:48;27.98;;;26.38;;
23594;SDS011;11975;47.674;9.472;2023-01-29T05:38:15;28.45;;;26.85;;
23594;SDS011;11975;47.674;9.472;2023-01-29T05:40:41;27.35;;;25.85;;
23594;SDS011;11975;47.674;9.472;2023-01-29T05:43:14;28.55;;;26.90;;
23594;SDS011;11975;47.674;9.472;2023-01-29T05:45:42;28.42;;;26.73;;
23594;SDS011;11975;47.674;9.472;2023-01-29T05:48:08;27.23;;;25.65;;
23594;SDS011;11975;47.674;9.472;2023-01-29T05:50:34;27.70;;;26.10;;
23594;SDS011;11975;47.674;9.472;2023-01-29T05:53:00;26.73;;;25.23;;
23594;SDS011;11975;47.674;9.472;2023-01-29T05:55:27;27.20;;;25.60;;
23594;SDS011;11975;47.674;9.472;2023-01-29T05:57:54;27.77;;;26.17;;
23594;SDS011;11975;47.674;9.472;2023-01-29T06:00:20;26.60;;;25.10;;
23594;SDS011;11975;47.674;9.472;2023-01-29T06:02:46;27.05;;;25.55;;
23594;SDS011;11975;47.674;9.472;2023-01-29T06:05:12;26.48;;;24.98;;
23594;SDS011;11975;47.674;9.472;2023-01-29T06:07:38;28.17;;;26.48;;
23594;SDS011;11975;47.674;9.472;2023-01-29T06:10:15;26.33;;;24.83;;
23594;SDS011;11975;47.674;9.472;2023-01-29T06:12:42;27.90;;;26.30;;
23594;SDS011;11975;47.674;9.472;2023-01-29T06:15:09;27.13;;;25.63;;
23594;SDS011;11975;47.674;9.472;2023-01-29T06:20:02;27.10;;;25.55;;
23594;SDS011;11975;47.674;9.472;2023-01-29T06:22:29;27.75;;;26.05;;
23594;SDS011;11975;47.674;9.472;2023-01-29T06:24:55;26.90;;;25.30;;
23594;SDS011;11975;47.674;9.472;2023-01-29T06:27:21;28.25;;;26.55;;
23594;SDS011;11975;47.674;9.472;2023-01-29T06:29:47;27.20;;;25.63;;
23594;SDS011;11975;47.674;9.472;2023-01-29T06:32:12;26.30;;;24.80;;
23594;SDS011;11975;47.674;9.472;2023-01-29T06:34:38;26.38;;;24.88;;
23594;SDS011;11975;47.674;9.472;2023-01-29T06:37:04;27.48;;;25.88;;
23594;SDS011;11975;47.674;9.472;2023-01-29T06:41:58;26.77;;;25.27;;
23594;SDS011;11975;47.674;9.472;2023-01-29T06:44:24;26.27;;;24.77;;
23594;SDS011;11975;47.674;9.472;2023-01-29T06:46:50;25.38;;;23.98;;
23594;SDS011;11975;47.674;9.472;2023-01-29T06:49:16;27.83;;;25.88;;
23594;SDS011;11975;47.674;9.472;2023-01-29T06:51:42;25.30;;;23.90;;
23594;SDS011;11975;47.674;9.472;2023-01-29T16:19:34;27.38;;;25.77;;
23594;SDS011;11975;47.674;9.472;2023-01-29T16:22:00;27.92;;;26.13;;
23594;SDS011;11975;47.674;9.472;2023-01-29T16:24:28;25.85;;;24.38;;
23594;SDS011;11975;47.674;9.472;2023-01-29T16:27:00;27.10;;;25.50;;
23594;SDS011;11975;47.674;9.472;2023-01-29T16:29:29;26.00;;;24.50;;
23594;SDS011;11975;47.674;9.472;2023-01-29T16:31:56;25.60;;;24.20;;
23594;SDS011;11975;47.674;9.472;2023-01-29T16:34:34;27.23;;;25.40;;
23594;SDS011;11975;47.674;9.472;2023-01-29T16:37:01;27.15;;;25.30;;
23594;SDS011;11975;47.674;9.472;2023-01-29T16:39:37;26.25;;;24.73;;
23594;SDS011;11975;47.674;9.472;2023-01-29T16:45:03;25.15;;;23.67;;
23594;SDS011;11975;47.674;9.472;2023-01-29T16:47:39;25.05;;;23.63;;
23594;SDS011;11975;47.674;9.472;2023-01-29T16:53:10;25.15;;;23.65;;
23594;SDS011;11975;47.674;9.472;2023-01-29T16:55:38;25.30;;;23.90;;
23594;SDS011;11975;47.674;9.472;2023-01-29T16:58:14;25.10;;;23.70;;
23594;SDS011;11975;47.674;9.472;2023-01-29T17:00:45;25.00;;;23.40;;
23594;SDS011;11975;47.674;9.472;2023-01-29T17:03:12;24.58;;;23.17;;
23594;SDS011;11975;47.674;9.472;2023-01-29T17:05:39;26.20;;;24.60;;
23594;SDS011;11975;47.674;9.472;2023-01-29T17:08:05;25.67;;;24.08;;
23594;SDS011;11975;47.674;9.472;2023-01-29T17:10:32;24.38;;;22.85;;
23594;SDS011;11975;47.674;9.472;2023-01-29T17:13:05;24.15;;;22.75;;
23594;SDS011;11975;47.674;9.472;2023-01-29T17:18:14;25.70;;;24.20;;
23594;SDS011;11975;47.674;9.472;2023-01-29T17:20:44;24.55;;;23.15;;
23594;SDS011;11975;47.674;9.472;2023-01-29T17:23:10;25.00;;;23.33;;
23594;SDS011;11975;47.674;9.472;2023-01-29T17:25:36;23.88;;;22.52;;
23594;SDS011;11975;47.674;9.472;2023-01-29T17:28:03;25.67;;;24.17;;
23594;SDS011;11975;47.674;9.472;2023-01-29T17:30:29;25.25;;;23.80;;
23594;SDS011;11975;47.674;9.472;2023-01-29T17:32:58;25.05;;;23.65;;
23594;SDS011;11975;47.674;9.472;2023-01-29T17:35:24;24.05;;;22.65;;
23594;SDS011;11975;47.674;9.472;2023-01-29T17:37:50;25.52;;;23.83;;
23594;SDS011;11975;47.674;9.472;2023-01-29T17:43:01;25.00;;;23.55;;
23594;SDS011;11975;47.674;9.472;2023-01-29T17:45:27;25.30;;;23.80;;
23594;SDS011;11975;47.674;9.472;2023-01-29T17:47:53;24.23;;;22.83;;
23594;SDS011;11975;47.674;9.472;2023-01-29T17:50:23;24.85;;;23.35;;
23594;SDS011;11975;47.674;9.472;2023-01-29T17:52:51;24.65;;;23.15;;
23594;SDS011;11975;47.674;9.472;2023-01-29T17:55:18;25.42;;;23.80;;
23594;SDS011;11975;47.674;9.472;2023-01-29T17:57:44;24.50;;;23.10;;
23594;SDS011;11975;47.674;9.472;2023-01-29T18:00:12;24.40;;;23.00;;
23594;SDS011;11975;47.674;9.472;2023-01-29T18:02:38;24.42;;;23.02;;
23594;SDS011;11975;47.674;9.472;2023-01-29T18:05:04;24.90;;;23.38;;
23594;SDS011;11975;47.674;9.472;2023-01-29T18:07:30;23.95;;;22.55;;
23594;SDS011;11975;47.674;9.472;2023-01-29T18:09:56;24.20;;;22.80;;
23594;SDS011;11975;47.674;9.472;2023-01-29T18:12:22;24.17;;;22.77;;
23594;SDS011;11975;47.674;9.472;2023-01-29T18:14:48;24.88;;;23.48;;
23594;SDS011;11975;47.674;9.472;2023-01-29T18:17:14;25.13;;;23.63;;
23594;SDS011;11975;47.674;9.472;2023-01-29T18:19:42;26.58;;;24.80;;
23594;SDS011;11975;47.674;9.472;2023-01-29T18:22:08;26.15;;;24.63;;
23594;SDS011;11975;47.674;9.472;2023-01-29T18:24:34;25.30;;;23.80;;
23594;SDS011;11975;47.674;9.472;2023-01-29T18:27:00;24.42;;;23.02;;
23594;SDS011;11975;47.674;9.472;2023-01-29T18:29:26;24.98;;;23.35;;
23594;SDS011;11975;47.674;9.472;2023-01-29T18:31:54;24.92;;;23.42;;
23594;SDS011;11975;47.674;9.472;2023-01-29T18:34:20;26.55;;;24.77;;
23594;SDS011;11975;47.674;9.472;2023-01-29T18:36:46;24.88;;;23.38;;
23594;SDS011;11975;47.674;9.472;2023-01-29T18:39:13;26.35;;;24.73;;
23594;SDS011;11975;47.674;9.472;2023-01-29T18:41:39;29.73;;;27.63;;
23594;SDS011;11975;47.674;9.472;2023-01-29T18:44:05;26.25;;;24.75;;
23594;SDS011;11975;47.674;9.472;2023-01-29T18:46:31;25.42;;;23.90;;
23594;SDS011;11975;47.674;9.472;2023-01-29T18:48:58;25.42;;;23.92;;
23594;SDS011;11975;47.674;9.472;2023-01-29T18:51:23;30.13;;;25.55;;
23594;SDS011;11975;47.674;9.472;2023-01-29T18:53:50;25.50;;;24.00;;
23594;SDS011;11975;47.674;9.472;2023-01-29T18:56:16;25.70;;;24.20;;
23594;SDS011;11975;47.674;9.472;2023-01-29T18:58:42;24.85;;;23.35;;
23594;SDS011;11975;47.674;9.472;2023-01-29T19:01:11;24.02;;;22.60;;
23594;SDS011;11975;47.674;9.472;2023-01-29T19:03:37;23.48;;;22.13;;
23594;SDS011;11975;47.674;9.472;2023-01-29T19:06:04;24.55;;;23.10;;
23594;SDS011;11975;47.674;9.472;2023-01-29T19:08:32;24.85;;;23.27;;
23594;SDS011;11975;47.674;9.472;2023-01-29T19:10:58;25.07;;;23.57;;
23594;SDS011;11975;47.674;9.472;2023-01-29T19:13:30;24.15;;;22.75;;
23594;SDS011;11975;47.674;9.472;2023-01-29T19:15:56;25.73;;;24.13;;
23594;SDS011;11975;47.674;9.472;2023-01-29T19:18:22;24.02;;;22.63;;
23594;SDS011;11975;47.674;9.472;2023-01-29T19:20:50;23.90;;;22.50;;
23594;SDS011;11975;47.674;9.472;2023-01-29T19:23:17;24.80;;;23.30;;
23594;SDS011;11975;47.674;9.472;2023-01-29T19:25:43;24.35;;;22.95;;
23594;SDS011;11975;47.674;9.472;2023-01-29T19:28:09;23.65;;;22.33;;
23594;SDS011;11975;47.674;9.472;2023-01-29T19:30:35;24.83;;;23.35;;
23594;SDS011;11975;47.674;9.472;2023-01-29T19:33:01;25.08;;;23.58;;
23594;SDS011;11975;47.674;9.472;2023-01-29T19:35:27;25.40;;;23.90;;
23594;SDS011;11975;47.674;9.472;2023-01-29T19:37:53;24.80;;;23.30;;
23594;SDS011;11975;47.674;9.472;2023-01-29T19:40:19;24.73;;;23.25;;
23594;SDS011;11975;47.674;9.472;2023-01-29T19:42:45;24.58;;;23.17;;
23594;SDS011;11975;47.674;9.472;2023-01-29T19:45:12;26.60;;;24.90;;
23594;SDS011;11975;47.674;9.472;2023-01-29T19:47:38;23.88;;;22.55;;
23594;SDS011;11975;47.674;9.472;2023-01-29T19:52:31;23.83;;;22.53;;
23594;SDS011;11975;47.674;9.472;2023-01-29T19:55:00;25.15;;;23.58;;
23594;SDS011;11975;47.674;9.472;2023-01-29T19:57:27;24.67;;;23.27;;
23594;SDS011;11975;47.674;9.472;2023-01-29T19:59:56;25.65;;;24.10;;
23594;SDS011;11975;47.674;9.472;2023-01-29T20:02:22;24.55;;;23.15;;
23594;SDS011;11975;47.674;9.472;2023-01-29T20:04:52;26.05;;;24.40;;
23594;SDS011;11975;47.674;9.472;2023-01-29T20:07:21;24.17;;;22.77;;
23594;SDS011;11975;47.674;9.472;2023-01-29T20:09:47;24.63;;;23.13;;
23594;SDS011;11975;47.674;9.472;2023-01-29T20:12:13;23.70;;;22.35;;
23594;SDS011;11975;47.674;9.472;2023-01-29T20:14:40;25.37;;;23.87;;
23594;SDS011;11975;47.674;9.472;2023-01-29T20:17:13;25.40;;;23.90;;
23594;SDS011;11975;47.674;9.472;2023-01-29T20:19:41;24.48;;;23.08;;
23594;SDS011;11975;47.674;9.472;2023-01-29T20:22:07;25.10;;;23.67;;
23594;SDS011;11975;47.674;9.472;2023-01-29T20:24:33;24.90;;;23.30;;
23594;SDS011;11975;47.674;9.472;2023-01-29T20:27:06;24.50;;;23.05;;
23594;SDS011;11975;47.674;9.472;2023-01-29T20:29:33;24.95;;;23.55;;
23594;SDS011;11975;47.674;9.472;2023-01-29T20:31:59;26.98;;;25.35;;
23594;SDS011;11975;47.674;9.472;2023-01-29T20:34:26;24.65;;;23.25;;
23594;SDS011;11975;47.674;9.472;2023-01-29T20:36:52;24.83;;;23.40;;
23594;SDS011;11975;47.674;9.472;2023-01-29T20:39:18;25.00;;;23.40;;
23594;SDS011;11975;47.674;9.472;2023-01-29T20:41:44;26.58;;;24.98;;
23594;SDS011;11975;47.674;9.472;2023-01-29T20:44:10;25.77;;;24.20;;
23594;SDS011;11975;47.674;9.472;2023-01-29T20:46:36;25.92;;;24.38;;
23594;SDS011;11975;47.674;9.472;2023-01-29T20:49:03;25.80;;;24.30;;
23594;SDS011;11975;47.674;9.472;2023-01-29T20:51:31;25.17;;;23.77;;
23594;SDS011;11975;47.674;9.472;2023-01-29T20:53:57;26.48;;;24.85;;
23594;SDS011;11975;47.674;9.472;2023-01-29T20:56:23;24.15;;;22.75;;
23594;SDS011;11975;47.674;9.472;2023-01-29T20:58:51;26.38;;;24.17;;
23594;SDS011;11975;47.674;9.472;2023-01-29T21:01:18;25.05;;;23.55;;
23594;SDS011;11975;47.674;9.472;2023-01-29T21:03:45;25.95;;;24.42;;
23594;SDS011;11975;47.674;9.472;2023-01-29T21:06:11;24.17;;;22.77;;
23594;SDS011;11975;47.674;9.472;2023-01-29T21:08:38;25.08;;;23.48;;
23594;SDS011;11975;47.674;9.472;2023-01-29T21:11:04;27.48;;;25.40;;
23594;SDS011;11975;47.674;9.472;2023-01-29T21:13:31;25.42;;;23.92;;
23594;SDS011;11975;47.674;9.472;2023-01-29T21:15:57;23.75;;;22.35;;
23594;SDS011;11975;47.674;9.472;2023-01-29T21:18:23;24.75;;;23.35;;
23594;SDS011;11975;47.674;9.472;2023-01-29T21:20:51;25.00;;;23.60;;
23594;SDS011;11975;47.674;9.472;2023-01-29T21:23:17;26.00;;;24.40;;
23594;SDS011;11975;47.674;9.472;2023-01-29T21:25:43;24.90;;;23.45;;
23594;SDS011;11975;47.674;9.472;2023-01-29T21:28:10;25.45;;;23.95;;
23594;SDS011;11975;47.674;9.472;2023-01-29T21:30:36;25.98;;;24.42;;
23594;SDS011;11975;47.674;9.472;2023-01-29T21:33:03;25.33;;;23.83;;
23594;SDS011;11975;47.674;9.472;2023-01-29T21:35:29;25.67;;;24.17;;
23594;SDS011;11975;47.674;9.472;2023-01-29T21:37:55;25.50;;;24.00;;
23594;SDS011;11975;47.674;9.472;2023-01-29T21:40:21;26.30;;;24.70;;
23594;SDS011;11975;47.674;9.472;2023-01-29T21:42:49;26.08;;;24.38;;
23594;SDS011;11975;47.674;9.472;2023-01-29T21:45:34;25.75;;;23.92;;
23594;SDS011;11975;47.674;9.472;2023-01-29T21:48:00;25.65;;;24.15;;
23594;SDS011;11975;47.674;9.472;2023-01-29T21:50:26;27.50;;;25.80;;
23594;SDS011;11975;47.674;9.472;2023-01-29T21:52:52;25.80;;;24.30;;
23594;SDS011;11975;47.674;9.472;2023-01-29T21:55:18;25.88;;;24.10;;
23594;SDS011;11975;47.674;9.472;2023-01-29T21:57:44;24.73;;;23.33;;
23594;SDS011;11975;47.674;9.472;2023-01-29T22:00:11;26.63;;;25.05;;
23594;SDS011;11975;47.674;9.472;2023-01-29T22:02:38;26.77;;;25.20;;
23594;SDS011;11975;47.674;9.472;2023-01-29T22:05:04;26.27;;;24.67;;
23594;SDS011;11975;47.674;9.472;2023-01-29T22:07:32;26.70;;;24.88;;
23594;SDS011;11975;47.674;9.472;2023-01-29T22:09:58;25.90;;;24.35;;
23594;SDS011;11975;47.674;9.472;2023-01-29T22:12:24;25.95;;;24.45;;
23594;SDS011;11975;47.674;9.472;2023-01-29T22:14:50;26.65;;;24.70;;
